sensor_id;sensor_type;location;lat;lon;timestamp;P1;durP1;ratioP1;P2;durP2;ratioP2
56183;SDS011;42086;53.170;6.980;2022-10-30T00:00:32;26.20;;;14.65;;
56183;SDS011;42086;53.170;6.980;2022-10-30T00:02:58;29.70;;;15.35;;
56183;SDS011;42086;53.170;6.980;2022-10-30T00:05:24;23.92;;;13.25;;
56183;SDS011;42086;53.170;6.980;2022-10-30T00:07:50;26.98;;;13.75;;
56183;SDS011;42086;53.170;6.980;2022-10-30T00:10:18;23.83;;;13.68;;
56183;SDS011;42086;53.170;6.980;2022-10-30T00:12:44;25.27;;;14.02;;
56183;SDS011;42086;53.170;6.980;2022-10-30T00:15:10;27.90;;;14.77;;
56183;SDS011;42086;53.170;6.980;2022-10-30T00:17:36;27.98;;;13.57;;
56183;SDS011;42086;53.170;6.980;2022-10-30T00:20:02;24.50;;;13.25;;
56183;SDS011;42086;53.170;6.980;2022-10-30T00:22:28;29.52;;;13.85;;
56183;SDS011;42086;53.170;6.980;2022-10-30T00:24:54;29.35;;;14.07;;
56183;SDS011;42086;53.170;6.980;2022-10-30T00:27:20;23.13;;;13.88;;
56183;SDS011;42086;53.170;6.980;2022-10-30T00:29:45;30.02;;;14.95;;
56183;SDS011;42086;53.170;6.980;2022-10-30T00:32:11;26.42;;;13.75;;
56183;SDS011;42086;53.170;6.980;2022-10-30T00:34:37;27.45;;;14.10;;
56183;SDS011;42086;53.170;6.980;2022-10-30T00:37:03;23.75;;;13.23;;
56183;SDS011;42086;53.170;6.980;2022-10-30T00:39:29;29.10;;;12.98;;
56183;SDS011;42086;53.170;6.980;2022-10-30T00:41:54;27.45;;;13.57;;
56183;SDS011;42086;53.170;6.980;2022-10-30T00:47:02;25.58;;;13.02;;
56183;SDS011;42086;53.170;6.980;2022-10-30T00:49:34;25.08;;;13.18;;
56183;SDS011;42086;53.170;6.980;2022-10-30T00:52:04;24.48;;;12.82;;
56183;SDS011;42086;53.170;6.980;2022-10-30T00:54:32;24.80;;;13.02;;
56183;SDS011;42086;53.170;6.980;2022-10-30T00:56:59;20.85;;;12.90;;
56183;SDS011;42086;53.170;6.980;2022-10-30T00:59:27;26.27;;;13.43;;
56183;SDS011;42086;53.170;6.980;2022-10-30T01:01:57;26.48;;;12.55;;
56183;SDS011;42086;53.170;6.980;2022-10-30T01:04:24;23.35;;;12.73;;
56183;SDS011;42086;53.170;6.980;2022-10-30T01:06:51;21.45;;;12.60;;
56183;SDS011;42086;53.170;6.980;2022-10-30T01:09:18;29.58;;;12.73;;
56183;SDS011;42086;53.170;6.980;2022-10-30T01:11:44;26.92;;;12.93;;
56183;SDS011;42086;53.170;6.980;2022-10-30T01:14:10;22.02;;;12.05;;
56183;SDS011;42086;53.170;6.980;2022-10-30T01:22:34;25.48;;;12.52;;
56183;SDS011;42086;53.170;6.980;2022-10-30T01:25:26;19.08;;;11.80;;
56183;SDS011;42086;53.170;6.980;2022-10-30T01:38:58;22.83;;;13.15;;
56183;SDS011;42086;53.170;6.980;2022-10-30T01:41:29;24.40;;;12.52;;
56183;SDS011;42086;53.170;6.980;2022-10-30T01:43:56;22.20;;;12.82;;
56183;SDS011;42086;53.170;6.980;2022-10-30T01:46:30;23.52;;;12.43;;
56183;SDS011;42086;53.170;6.980;2022-10-30T01:54:44;28.67;;;12.97;;
56183;SDS011;42086;53.170;6.980;2022-10-30T02:00:05;24.90;;;13.60;;
56183;SDS011;42086;53.170;6.980;2022-10-30T02:02:32;26.23;;;13.57;;
56183;SDS011;42086;53.170;6.980;2022-10-30T02:04:58;23.20;;;12.82;;
56183;SDS011;42086;53.170;6.980;2022-10-30T02:07:24;32.78;;;14.15;;
56183;SDS011;42086;53.170;6.980;2022-10-30T02:09:51;29.95;;;13.85;;
56183;SDS011;42086;53.170;6.980;2022-10-30T02:12:18;24.55;;;13.38;;
56183;SDS011;42086;53.170;6.980;2022-10-30T02:14:46;25.63;;;14.15;;
56183;SDS011;42086;53.170;6.980;2022-10-30T02:17:16;29.00;;;14.25;;
56183;SDS011;42086;53.170;6.980;2022-10-30T02:19:43;25.30;;;13.80;;
56183;SDS011;42086;53.170;6.980;2022-10-30T02:22:09;29.17;;;14.02;;
56183;SDS011;42086;53.170;6.980;2022-10-30T02:24:35;28.95;;;13.88;;
56183;SDS011;42086;53.170;6.980;2022-10-30T02:27:01;25.67;;;13.02;;
56183;SDS011;42086;53.170;6.980;2022-10-30T02:29:26;26.92;;;13.50;;
56183;SDS011;42086;53.170;6.980;2022-10-30T02:31:52;31.45;;;13.95;;
56183;SDS011;42086;53.170;6.980;2022-10-30T02:34:18;28.00;;;13.45;;
56183;SDS011;42086;53.170;6.980;2022-10-30T02:36:43;25.83;;;13.05;;
56183;SDS011;42086;53.170;6.980;2022-10-30T02:39:09;28.13;;;13.65;;
56183;SDS011;42086;53.170;6.980;2022-10-30T02:41:35;31.17;;;14.10;;
56183;SDS011;42086;53.170;6.980;2022-10-30T02:44:01;26.85;;;14.35;;
56183;SDS011;42086;53.170;6.980;2022-10-30T02:46:27;24.30;;;13.38;;
56183;SDS011;42086;53.170;6.980;2022-10-30T02:48:53;32.45;;;14.63;;
56183;SDS011;42086;53.170;6.980;2022-10-30T02:51:19;26.40;;;12.68;;
56183;SDS011;42086;53.170;6.980;2022-10-30T02:53:44;29.88;;;13.25;;
56183;SDS011;42086;53.170;6.980;2022-10-30T02:56:12;29.20;;;13.45;;
56183;SDS011;42086;53.170;6.980;2022-10-30T02:58:38;27.67;;;13.18;;
56183;SDS011;42086;53.170;6.980;2022-10-30T03:01:08;30.55;;;13.73;;
56183;SDS011;42086;53.170;6.980;2022-10-30T03:03:39;27.23;;;14.35;;
56183;SDS011;42086;53.170;6.980;2022-10-30T03:06:06;32.45;;;13.63;;
56183;SDS011;42086;53.170;6.980;2022-10-30T03:08:34;29.25;;;13.68;;
56183;SDS011;42086;53.170;6.980;2022-10-30T03:11:08;27.92;;;13.43;;
56183;SDS011;42086;53.170;6.980;2022-10-30T03:13:39;24.80;;;13.93;;
56183;SDS011;42086;53.170;6.980;2022-10-30T03:16:06;25.02;;;12.88;;
56183;SDS011;42086;53.170;6.980;2022-10-30T03:18:34;26.45;;;12.88;;
56183;SDS011;42086;53.170;6.980;2022-10-30T03:21:01;27.63;;;13.35;;
56183;SDS011;42086;53.170;6.980;2022-10-30T03:23:28;23.20;;;12.82;;
56183;SDS011;42086;53.170;6.980;2022-10-30T03:25:54;27.67;;;13.65;;
56183;SDS011;42086;53.170;6.980;2022-10-30T03:28:22;30.40;;;13.68;;
56183;SDS011;42086;53.170;6.980;2022-10-30T03:30:49;29.08;;;13.52;;
56183;SDS011;42086;53.170;6.980;2022-10-30T03:33:16;25.00;;;13.23;;
56183;SDS011;42086;53.170;6.980;2022-10-30T03:35:43;27.23;;;13.38;;
56183;SDS011;42086;53.170;6.980;2022-10-30T03:38:09;28.23;;;13.35;;
56183;SDS011;42086;53.170;6.980;2022-10-30T03:40:36;27.45;;;13.23;;
56183;SDS011;42086;53.170;6.980;2022-10-30T03:43:02;25.27;;;13.23;;
56183;SDS011;42086;53.170;6.980;2022-10-30T03:45:27;20.83;;;12.68;;
56183;SDS011;42086;53.170;6.980;2022-10-30T03:47:53;28.15;;;12.93;;
56183;SDS011;42086;53.170;6.980;2022-10-30T03:50:19;29.85;;;13.40;;
56183;SDS011;42086;53.170;6.980;2022-10-30T03:52:44;25.00;;;14.13;;
56183;SDS011;42086;53.170;6.980;2022-10-30T03:55:10;24.40;;;12.98;;
56183;SDS011;42086;53.170;6.980;2022-10-30T03:57:36;22.85;;;13.07;;
56183;SDS011;42086;53.170;6.980;2022-10-30T04:00:02;31.15;;;13.15;;
56183;SDS011;42086;53.170;6.980;2022-10-30T04:02:29;29.08;;;12.98;;
56183;SDS011;42086;53.170;6.980;2022-10-30T04:04:54;27.45;;;13.25;;
56183;SDS011;42086;53.170;6.980;2022-10-30T04:07:20;23.50;;;12.73;;
56183;SDS011;42086;53.170;6.980;2022-10-30T04:09:46;26.55;;;13.07;;
56183;SDS011;42086;53.170;6.980;2022-10-30T04:12:11;28.13;;;12.43;;
56183;SDS011;42086;53.170;6.980;2022-10-30T04:14:37;27.85;;;12.80;;
56183;SDS011;42086;53.170;6.980;2022-10-30T04:17:03;28.90;;;12.80;;
56183;SDS011;42086;53.170;6.980;2022-10-30T04:19:30;25.50;;;13.45;;
56183;SDS011;42086;53.170;6.980;2022-10-30T04:21:56;27.08;;;13.15;;
56183;SDS011;42086;53.170;6.980;2022-10-30T04:24:22;29.90;;;13.52;;
56183;SDS011;42086;53.170;6.980;2022-10-30T04:26:47;25.83;;;13.02;;
56183;SDS011;42086;53.170;6.980;2022-10-30T04:29:13;25.80;;;13.75;;
56183;SDS011;42086;53.170;6.980;2022-10-30T04:31:39;27.35;;;14.30;;
56183;SDS011;42086;53.170;6.980;2022-10-30T04:34:04;30.75;;;14.00;;
56183;SDS011;42086;53.170;6.980;2022-10-30T04:36:30;26.92;;;12.85;;
56183;SDS011;42086;53.170;6.980;2022-10-30T04:38:58;26.80;;;12.52;;
56183;SDS011;42086;53.170;6.980;2022-10-30T04:41:24;27.02;;;14.15;;
56183;SDS011;42086;53.170;6.980;2022-10-30T04:43:50;30.55;;;14.38;;
56183;SDS011;42086;53.170;6.980;2022-10-30T04:46:16;27.90;;;13.73;;
56183;SDS011;42086;53.170;6.980;2022-10-30T04:48:43;27.77;;;13.90;;
56183;SDS011;42086;53.170;6.980;2022-10-30T04:51:09;27.80;;;13.38;;
56183;SDS011;42086;53.170;6.980;2022-10-30T04:53:36;29.13;;;13.20;;
56183;SDS011;42086;53.170;6.980;2022-10-30T04:56:03;29.92;;;13.85;;
56183;SDS011;42086;53.170;6.980;2022-10-30T04:58:29;31.35;;;14.55;;
56183;SDS011;42086;53.170;6.980;2022-10-30T05:00:55;25.95;;;13.40;;
56183;SDS011;42086;53.170;6.980;2022-10-30T05:03:26;29.52;;;13.32;;
56183;SDS011;42086;53.170;6.980;2022-10-30T05:05:58;28.38;;;14.30;;
56183;SDS011;42086;53.170;6.980;2022-10-30T05:08:26;26.77;;;14.63;;
56183;SDS011;42086;53.170;6.980;2022-10-30T05:10:52;27.05;;;14.38;;
56183;SDS011;42086;53.170;6.980;2022-10-30T05:13:18;30.45;;;14.60;;
56183;SDS011;42086;53.170;6.980;2022-10-30T05:15:44;28.80;;;14.45;;
56183;SDS011;42086;53.170;6.980;2022-10-30T05:18:09;24.10;;;14.07;;
56183;SDS011;42086;53.170;6.980;2022-10-30T05:20:35;32.45;;;13.95;;
56183;SDS011;42086;53.170;6.980;2022-10-30T05:23:01;32.22;;;14.32;;
56183;SDS011;42086;53.170;6.980;2022-10-30T05:25:27;29.40;;;14.73;;
56183;SDS011;42086;53.170;6.980;2022-10-30T05:28:00;29.35;;;14.30;;
56183;SDS011;42086;53.170;6.980;2022-10-30T05:30:28;27.33;;;14.00;;
56183;SDS011;42086;53.170;6.980;2022-10-30T05:33:01;25.73;;;14.25;;
56183;SDS011;42086;53.170;6.980;2022-10-30T05:35:29;27.77;;;14.25;;
56183;SDS011;42086;53.170;6.980;2022-10-30T05:37:57;29.48;;;14.00;;
56183;SDS011;42086;53.170;6.980;2022-10-30T05:40:23;34.65;;;14.60;;
56183;SDS011;42086;53.170;6.980;2022-10-30T05:42:49;30.20;;;14.98;;
56183;SDS011;42086;53.170;6.980;2022-10-30T05:45:15;34.75;;;15.95;;
56183;SDS011;42086;53.170;6.980;2022-10-30T05:47:42;30.45;;;15.35;;
56183;SDS011;42086;53.170;6.980;2022-10-30T05:50:08;36.42;;;15.30;;
56183;SDS011;42086;53.170;6.980;2022-10-30T05:52:36;30.17;;;14.82;;
56183;SDS011;42086;53.170;6.980;2022-10-30T05:55:02;34.70;;;16.33;;
56183;SDS011;42086;53.170;6.980;2022-10-30T05:57:28;28.75;;;15.68;;
56183;SDS011;42086;53.170;6.980;2022-10-30T05:59:54;31.52;;;15.55;;
56183;SDS011;42086;53.170;6.980;2022-10-30T06:02:20;30.33;;;15.80;;
56183;SDS011;42086;53.170;6.980;2022-10-30T06:04:46;32.28;;;15.27;;
56183;SDS011;42086;53.170;6.980;2022-10-30T06:07:12;29.05;;;15.60;;
56183;SDS011;42086;53.170;6.980;2022-10-30T06:09:38;36.47;;;16.23;;
56183;SDS011;42086;53.170;6.980;2022-10-30T06:12:03;28.23;;;14.82;;
56183;SDS011;42086;53.170;6.980;2022-10-30T06:14:29;39.25;;;16.52;;
56183;SDS011;42086;53.170;6.980;2022-10-30T06:16:55;28.77;;;14.98;;
56183;SDS011;42086;53.170;6.980;2022-10-30T06:19:20;29.10;;;14.95;;
56183;SDS011;42086;53.170;6.980;2022-10-30T06:21:46;27.63;;;15.48;;
56183;SDS011;42086;53.170;6.980;2022-10-30T06:24:12;30.13;;;16.00;;
56183;SDS011;42086;53.170;6.980;2022-10-30T06:26:38;29.60;;;15.52;;
56183;SDS011;42086;53.170;6.980;2022-10-30T06:29:04;31.38;;;16.48;;
56183;SDS011;42086;53.170;6.980;2022-10-30T06:31:30;28.98;;;15.35;;
56183;SDS011;42086;53.170;6.980;2022-10-30T06:33:56;29.08;;;14.07;;
56183;SDS011;42086;53.170;6.980;2022-10-30T06:36:21;29.58;;;15.68;;
56183;SDS011;42086;53.170;6.980;2022-10-30T06:38:47;30.05;;;15.20;;
56183;SDS011;42086;53.170;6.980;2022-10-30T06:41:13;28.55;;;15.65;;
56183;SDS011;42086;53.170;6.980;2022-10-30T06:43:38;29.67;;;14.73;;
56183;SDS011;42086;53.170;6.980;2022-10-30T06:46:04;28.48;;;15.00;;
56183;SDS011;42086;53.170;6.980;2022-10-30T06:48:30;32.33;;;15.25;;
56183;SDS011;42086;53.170;6.980;2022-10-30T06:50:56;28.83;;;16.25;;
56183;SDS011;42086;53.170;6.980;2022-10-30T06:53:23;31.13;;;15.88;;
56183;SDS011;42086;53.170;6.980;2022-10-30T06:55:55;34.58;;;16.52;;
56183;SDS011;42086;53.170;6.980;2022-10-30T06:58:22;28.05;;;15.55;;
56183;SDS011;42086;53.170;6.980;2022-10-30T07:00:48;31.33;;;16.23;;
56183;SDS011;42086;53.170;6.980;2022-10-30T07:03:14;34.45;;;15.40;;
56183;SDS011;42086;53.170;6.980;2022-10-30T07:05:40;25.95;;;14.95;;
56183;SDS011;42086;53.170;6.980;2022-10-30T07:08:06;34.75;;;15.63;;
56183;SDS011;42086;53.170;6.980;2022-10-30T07:10:31;30.23;;;16.27;;
56183;SDS011;42086;53.170;6.980;2022-10-30T07:12:57;29.77;;;16.08;;
56183;SDS011;42086;53.170;6.980;2022-10-30T07:15:23;32.83;;;15.65;;
56183;SDS011;42086;53.170;6.980;2022-10-30T07:17:59;34.08;;;16.05;;
56183;SDS011;42086;53.170;6.980;2022-10-30T07:20:30;30.63;;;16.13;;
56183;SDS011;42086;53.170;6.980;2022-10-30T07:22:57;34.45;;;16.58;;
56183;SDS011;42086;53.170;6.980;2022-10-30T07:25:22;31.80;;;16.02;;
56183;SDS011;42086;53.170;6.980;2022-10-30T07:27:50;28.00;;;15.57;;
56183;SDS011;42086;53.170;6.980;2022-10-30T07:30:18;32.35;;;15.65;;
56183;SDS011;42086;53.170;6.980;2022-10-30T07:32:45;34.05;;;15.85;;
56183;SDS011;42086;53.170;6.980;2022-10-30T07:35:11;28.35;;;15.38;;
56183;SDS011;42086;53.170;6.980;2022-10-30T07:37:38;33.22;;;15.77;;
56183;SDS011;42086;53.170;6.980;2022-10-30T07:40:05;30.25;;;16.10;;
56183;SDS011;42086;53.170;6.980;2022-10-30T07:42:31;33.70;;;16.40;;
56183;SDS011;42086;53.170;6.980;2022-10-30T07:44:57;31.52;;;16.58;;
56183;SDS011;42086;53.170;6.980;2022-10-30T07:47:23;29.30;;;16.17;;
56183;SDS011;42086;53.170;6.980;2022-10-30T07:49:49;34.58;;;16.77;;
56183;SDS011;42086;53.170;6.980;2022-10-30T07:52:15;31.00;;;16.67;;
56183;SDS011;42086;53.170;6.980;2022-10-30T07:54:40;31.90;;;16.25;;
56183;SDS011;42086;53.170;6.980;2022-10-30T07:57:06;30.15;;;16.33;;
56183;SDS011;42086;53.170;6.980;2022-10-30T07:59:32;33.72;;;16.13;;
56183;SDS011;42086;53.170;6.980;2022-10-30T08:01:57;33.70;;;17.70;;
56183;SDS011;42086;53.170;6.980;2022-10-30T08:04:27;33.40;;;16.75;;
56183;SDS011;42086;53.170;6.980;2022-10-30T08:06:53;33.05;;;16.73;;
56183;SDS011;42086;53.170;6.980;2022-10-30T08:09:18;34.50;;;16.52;;
56183;SDS011;42086;53.170;6.980;2022-10-30T08:11:44;30.63;;;16.05;;
56183;SDS011;42086;53.170;6.980;2022-10-30T08:14:10;35.35;;;15.75;;
56183;SDS011;42086;53.170;6.980;2022-10-30T08:16:35;31.00;;;15.93;;
56183;SDS011;42086;53.170;6.980;2022-10-30T08:19:01;36.10;;;16.65;;
56183;SDS011;42086;53.170;6.980;2022-10-30T08:21:27;32.47;;;16.92;;
56183;SDS011;42086;53.170;6.980;2022-10-30T08:23:52;31.92;;;16.08;;
56183;SDS011;42086;53.170;6.980;2022-10-30T08:26:18;25.30;;;15.13;;
56183;SDS011;42086;53.170;6.980;2022-10-30T08:28:44;26.85;;;16.15;;
56183;SDS011;42086;53.170;6.980;2022-10-30T08:31:09;27.83;;;15.80;;
56183;SDS011;42086;53.170;6.980;2022-10-30T08:33:35;31.20;;;16.35;;
56183;SDS011;42086;53.170;6.980;2022-10-30T08:36:01;28.08;;;16.02;;
56183;SDS011;42086;53.170;6.980;2022-10-30T08:38:27;31.88;;;16.48;;
56183;SDS011;42086;53.170;6.980;2022-10-30T08:40:53;46.10;;;23.58;;
56183;SDS011;42086;53.170;6.980;2022-10-30T08:43:19;29.75;;;16.27;;
56183;SDS011;42086;53.170;6.980;2022-10-30T08:45:45;30.40;;;17.67;;
56183;SDS011;42086;53.170;6.980;2022-10-30T08:48:12;31.10;;;16.33;;
56183;SDS011;42086;53.170;6.980;2022-10-30T08:50:39;30.20;;;15.52;;
56183;SDS011;42086;53.170;6.980;2022-10-30T08:53:06;25.77;;;15.52;;
56183;SDS011;42086;53.170;6.980;2022-10-30T08:55:34;27.65;;;14.88;;
56183;SDS011;42086;53.170;6.980;2022-10-30T08:58:00;29.42;;;16.60;;
56183;SDS011;42086;53.170;6.980;2022-10-30T09:00:26;26.50;;;15.25;;
56183;SDS011;42086;53.170;6.980;2022-10-30T09:02:53;28.45;;;15.82;;
56183;SDS011;42086;53.170;6.980;2022-10-30T09:05:18;30.52;;;16.15;;
56183;SDS011;42086;53.170;6.980;2022-10-30T09:07:44;25.70;;;15.52;;
56183;SDS011;42086;53.170;6.980;2022-10-30T09:10:11;32.03;;;15.55;;
56183;SDS011;42086;53.170;6.980;2022-10-30T09:12:37;28.58;;;15.68;;
56183;SDS011;42086;53.170;6.980;2022-10-30T09:15:03;35.75;;;17.15;;
56183;SDS011;42086;53.170;6.980;2022-10-30T09:17:29;35.33;;;17.25;;
56183;SDS011;42086;53.170;6.980;2022-10-30T09:19:55;33.30;;;17.98;;
56183;SDS011;42086;53.170;6.980;2022-10-30T09:22:20;31.85;;;18.45;;
56183;SDS011;42086;53.170;6.980;2022-10-30T09:24:47;33.67;;;18.55;;
56183;SDS011;42086;53.170;6.980;2022-10-30T09:27:13;29.05;;;17.80;;
56183;SDS011;42086;53.170;6.980;2022-10-30T09:29:38;31.08;;;18.52;;
56183;SDS011;42086;53.170;6.980;2022-10-30T09:32:04;34.13;;;18.13;;
56183;SDS011;42086;53.170;6.980;2022-10-30T09:34:34;35.80;;;18.90;;
56183;SDS011;42086;53.170;6.980;2022-10-30T09:37:00;34.65;;;20.63;;
56183;SDS011;42086;53.170;6.980;2022-10-30T09:39:26;31.63;;;18.30;;
56183;SDS011;42086;53.170;6.980;2022-10-30T09:41:59;36.50;;;19.52;;
56183;SDS011;42086;53.170;6.980;2022-10-30T09:52:39;34.92;;;18.65;;
56183;SDS011;42086;53.170;6.980;2022-10-30T10:00:37;32.05;;;16.90;;
56183;SDS011;42086;53.170;6.980;2022-10-30T10:03:29;35.50;;;18.20;;
56183;SDS011;42086;53.170;6.980;2022-10-30T10:06:10;32.15;;;18.67;;
56183;SDS011;42086;53.170;6.980;2022-10-30T10:08:41;31.08;;;17.70;;
56183;SDS011;42086;53.170;6.980;2022-10-30T10:11:13;30.25;;;18.50;;
56183;SDS011;42086;53.170;6.980;2022-10-30T10:14:05;29.88;;;17.77;;
56183;SDS011;42086;53.170;6.980;2022-10-30T10:16:39;32.65;;;16.60;;
56183;SDS011;42086;53.170;6.980;2022-10-30T10:22:24;34.92;;;18.17;;
56183;SDS011;42086;53.170;6.980;2022-10-30T10:25:01;29.10;;;17.42;;
56183;SDS011;42086;53.170;6.980;2022-10-30T10:35:32;28.13;;;16.92;;
56183;SDS011;42086;53.170;6.980;2022-10-30T10:46:30;35.45;;;18.55;;
56183;SDS011;42086;53.170;6.980;2022-10-30T10:52:12;28.23;;;15.50;;
56183;SDS011;42086;53.170;6.980;2022-10-30T10:54:42;26.95;;;16.42;;
56183;SDS011;42086;53.170;6.980;2022-10-30T10:59:59;31.42;;;16.42;;
56183;SDS011;42086;53.170;6.980;2022-10-30T11:03:20;23.75;;;15.88;;
56183;SDS011;42086;53.170;6.980;2022-10-30T11:05:33;28.00;;;16.55;;
56183;SDS011;42086;53.170;6.980;2022-10-30T11:08:25;22.73;;;13.18;;
56183;SDS011;42086;53.170;6.980;2022-10-30T11:10:56;26.48;;;13.73;;
56183;SDS011;42086;53.170;6.980;2022-10-30T11:13:28;22.55;;;12.93;;
56183;SDS011;42086;53.170;6.980;2022-10-30T11:19:12;26.38;;;13.27;;
56183;SDS011;42086;53.170;6.980;2022-10-30T11:21:38;28.00;;;15.25;;
56183;SDS011;42086;53.170;6.980;2022-10-30T11:24:31;27.30;;;13.93;;
56183;SDS011;42086;53.170;6.980;2022-10-30T11:27:14;21.50;;;13.52;;
56183;SDS011;42086;53.170;6.980;2022-10-30T11:32:18;26.20;;;14.48;;
56183;SDS011;42086;53.170;6.980;2022-10-30T11:34:52;27.55;;;14.68;;
56183;SDS011;42086;53.170;6.980;2022-10-30T11:37:32;22.45;;;13.57;;
56183;SDS011;42086;53.170;6.980;2022-10-30T11:42:41;19.13;;;10.40;;
56183;SDS011;42086;53.170;6.980;2022-10-30T11:45:17;20.05;;;10.93;;
56183;SDS011;42086;53.170;6.980;2022-10-30T11:47:48;21.55;;;12.38;;
56183;SDS011;42086;53.170;6.980;2022-10-30T11:52:45;17.77;;;12.40;;
56183;SDS011;42086;53.170;6.980;2022-10-30T11:57:41;22.60;;;12.68;;
56183;SDS011;42086;53.170;6.980;2022-10-30T12:00:19;17.55;;;11.75;;
56183;SDS011;42086;53.170;6.980;2022-10-30T12:02:53;22.30;;;13.43;;
56183;SDS011;42086;53.170;6.980;2022-10-30T12:10:32;20.67;;;13.27;;
56183;SDS011;42086;53.170;6.980;2022-10-30T12:13:15;18.45;;;9.70;;
56183;SDS011;42086;53.170;6.980;2022-10-30T12:15:43;17.98;;;9.20;;
56183;SDS011;42086;53.170;6.980;2022-10-30T12:18:19;19.42;;;9.98;;
56183;SDS011;42086;53.170;6.980;2022-10-30T12:20:51;19.08;;;10.35;;
56183;SDS011;42086;53.170;6.980;2022-10-30T12:23:21;16.35;;;10.10;;
56183;SDS011;42086;53.170;6.980;2022-10-30T12:25:51;24.33;;;10.32;;
56183;SDS011;42086;53.170;6.980;2022-10-30T12:28:20;20.52;;;10.45;;
56183;SDS011;42086;53.170;6.980;2022-10-30T12:30:49;20.48;;;10.52;;
56183;SDS011;42086;53.170;6.980;2022-10-30T12:35:55;17.20;;;9.10;;
56183;SDS011;42086;53.170;6.980;2022-10-30T12:40:57;17.13;;;8.85;;
56183;SDS011;42086;53.170;6.980;2022-10-30T12:43:37;18.45;;;9.10;;
56183;SDS011;42086;53.170;6.980;2022-10-30T12:52:19;15.20;;;9.43;;
56183;SDS011;42086;53.170;6.980;2022-10-30T12:57:22;18.08;;;9.40;;
56183;SDS011;42086;53.170;6.980;2022-10-30T13:11:10;18.80;;;9.88;;
56183;SDS011;42086;53.170;6.980;2022-10-30T13:13:42;19.10;;;9.88;;
56183;SDS011;42086;53.170;6.980;2022-10-30T13:16:26;18.77;;;9.95;;
56183;SDS011;42086;53.170;6.980;2022-10-30T13:26:12;17.02;;;9.30;;
56183;SDS011;42086;53.170;6.980;2022-10-30T13:29:33;18.00;;;10.30;;
56183;SDS011;42086;53.170;6.980;2022-10-30T13:31:53;22.55;;;10.50;;
56183;SDS011;42086;53.170;6.980;2022-10-30T13:37:12;19.25;;;11.02;;
56183;SDS011;42086;53.170;6.980;2022-10-30T13:40:11;20.00;;;10.88;;
56183;SDS011;42086;53.170;6.980;2022-10-30T13:53:59;20.00;;;9.77;;
56183;SDS011;42086;53.170;6.980;2022-10-30T13:56:33;20.05;;;10.70;;
56183;SDS011;42086;53.170;6.980;2022-10-30T13:59:05;19.63;;;10.32;;
56183;SDS011;42086;53.170;6.980;2022-10-30T14:02:30;14.70;;;9.73;;
56183;SDS011;42086;53.170;6.980;2022-10-30T14:04:51;18.25;;;9.93;;
56183;SDS011;42086;53.170;6.980;2022-10-30T14:08:27;18.95;;;10.30;;
56183;SDS011;42086;53.170;6.980;2022-10-30T14:10:47;23.13;;;10.60;;
56183;SDS011;42086;53.170;6.980;2022-10-30T14:15:45;21.15;;;9.98;;
56183;SDS011;42086;53.170;6.980;2022-10-30T14:20:37;25.30;;;10.57;;
56183;SDS011;42086;53.170;6.980;2022-10-30T14:28:29;14.52;;;9.05;;
56183;SDS011;42086;53.170;6.980;2022-10-30T14:31:01;16.73;;;9.85;;
56183;SDS011;42086;53.170;6.980;2022-10-30T14:36:20;19.30;;;9.65;;
56183;SDS011;42086;53.170;6.980;2022-10-30T14:38:51;15.05;;;8.90;;
56183;SDS011;42086;53.170;6.980;2022-10-30T14:42:09;17.00;;;9.02;;
56183;SDS011;42086;53.170;6.980;2022-10-30T14:44:13;20.17;;;9.10;;
56183;SDS011;42086;53.170;6.980;2022-10-30T14:49:42;20.17;;;9.77;;
56183;SDS011;42086;53.170;6.980;2022-10-30T14:54:45;17.08;;;9.77;;
56183;SDS011;42086;53.170;6.980;2022-10-30T14:57:45;15.10;;;9.07;;
56183;SDS011;42086;53.170;6.980;2022-10-30T15:05:45;19.45;;;9.90;;
56183;SDS011;42086;53.170;6.980;2022-10-30T15:13:54;24.05;;;10.85;;
56183;SDS011;42086;53.170;6.980;2022-10-30T15:16:27;27.63;;;10.65;;
56183;SDS011;42086;53.170;6.980;2022-10-30T15:19:04;20.17;;;10.88;;
56183;SDS011;42086;53.170;6.980;2022-10-30T15:21:34;18.00;;;9.82;;
56183;SDS011;42086;53.170;6.980;2022-10-30T15:24:10;21.70;;;10.30;;
56183;SDS011;42086;53.170;6.980;2022-10-30T15:26:41;20.70;;;9.88;;
56183;SDS011;42086;53.170;6.980;2022-10-30T15:29:16;24.02;;;10.63;;
56183;SDS011;42086;53.170;6.980;2022-10-30T15:31:58;20.27;;;10.45;;
56183;SDS011;42086;53.170;6.980;2022-10-30T15:35:02;19.35;;;9.82;;
56183;SDS011;42086;53.170;6.980;2022-10-30T15:37:29;20.17;;;10.52;;
56183;SDS011;42086;53.170;6.980;2022-10-30T15:42:45;18.38;;;10.30;;
56183;SDS011;42086;53.170;6.980;2022-10-30T15:45:54;15.55;;;9.90;;
56183;SDS011;42086;53.170;6.980;2022-10-30T15:50:33;18.95;;;10.52;;
56183;SDS011;42086;53.170;6.980;2022-10-30T15:52:59;21.08;;;11.38;;
56183;SDS011;42086;53.170;6.980;2022-10-30T15:55:29;18.83;;;11.65;;
56183;SDS011;42086;53.170;6.980;2022-10-30T15:57:57;20.33;;;11.05;;
56183;SDS011;42086;53.170;6.980;2022-10-30T16:00:27;21.88;;;10.90;;
56183;SDS011;42086;53.170;6.980;2022-10-30T16:02:59;19.67;;;11.25;;
56183;SDS011;42086;53.170;6.980;2022-10-30T16:05:35;21.10;;;10.50;;
56183;SDS011;42086;53.170;6.980;2022-10-30T16:08:01;26.30;;;13.23;;
56183;SDS011;42086;53.170;6.980;2022-10-30T16:10:30;23.48;;;11.68;;
56183;SDS011;42086;53.170;6.980;2022-10-30T16:12:58;25.30;;;11.73;;
56183;SDS011;42086;53.170;6.980;2022-10-30T16:15:25;27.75;;;12.30;;
56183;SDS011;42086;53.170;6.980;2022-10-30T16:18:16;23.65;;;12.70;;
56183;SDS011;42086;53.170;6.980;2022-10-30T16:20:44;26.70;;;13.18;;
56183;SDS011;42086;53.170;6.980;2022-10-30T16:23:15;22.73;;;12.05;;
56183;SDS011;42086;53.170;6.980;2022-10-30T16:25:44;21.13;;;11.98;;
56183;SDS011;42086;53.170;6.980;2022-10-30T16:30:49;24.98;;;12.02;;
56183;SDS011;42086;53.170;6.980;2022-10-30T16:33:17;20.75;;;12.00;;
56183;SDS011;42086;53.170;6.980;2022-10-30T16:35:49;25.52;;;13.02;;
56183;SDS011;42086;53.170;6.980;2022-10-30T16:38:17;24.13;;;13.00;;
56183;SDS011;42086;53.170;6.980;2022-10-30T16:40:43;26.10;;;13.23;;
56183;SDS011;42086;53.170;6.980;2022-10-30T16:43:43;22.70;;;12.82;;
56183;SDS011;42086;53.170;6.980;2022-10-30T16:48:59;24.85;;;13.50;;
56183;SDS011;42086;53.170;6.980;2022-10-30T16:51:27;27.65;;;13.93;;
56183;SDS011;42086;53.170;6.980;2022-10-30T16:53:54;26.50;;;15.25;;
56183;SDS011;42086;53.170;6.980;2022-10-30T16:56:24;28.27;;;14.45;;
56183;SDS011;42086;53.170;6.980;2022-10-30T16:58:56;25.60;;;14.30;;
56183;SDS011;42086;53.170;6.980;2022-10-30T17:01:30;26.15;;;14.45;;
56183;SDS011;42086;53.170;6.980;2022-10-30T17:03:56;30.13;;;15.10;;
56183;SDS011;42086;53.170;6.980;2022-10-30T17:06:27;27.17;;;14.27;;
56183;SDS011;42086;53.170;6.980;2022-10-30T17:09:02;26.90;;;15.40;;
56183;SDS011;42086;53.170;6.980;2022-10-30T17:11:45;26.38;;;16.63;;
56183;SDS011;42086;53.170;6.980;2022-10-30T17:14:24;26.08;;;15.18;;
56183;SDS011;42086;53.170;6.980;2022-10-30T17:16:53;32.28;;;16.17;;
56183;SDS011;42086;53.170;6.980;2022-10-30T17:22:00;40.10;;;20.45;;
56183;SDS011;42086;53.170;6.980;2022-10-30T17:24:31;35.55;;;18.55;;
56183;SDS011;42086;53.170;6.980;2022-10-30T17:27:02;33.38;;;17.90;;
56183;SDS011;42086;53.170;6.980;2022-10-30T17:32:05;27.98;;;16.23;;
56183;SDS011;42086;53.170;6.980;2022-10-30T17:34:46;31.80;;;18.35;;